Time;durP1;ratioP1;P1;durP2;ratioP2;P2;SDS_P1;SDS_P2;PMS_P1;PMS_P2;Temp;Humidity;BMP_temperature;BMP_pressure;BME280_temperature;BME280_humidity;BME280_pressure;Samples;Min_cycle;Max_cycle;Signal;HPM_P1;HPM_P2
2023/02/27 08:03:17;;;;;;;8.05;2.10;;;;;;;3.43;56.40;97026.94;2092763;27;20563;-59
2023/02/27 08:05:49;;;;;;;7.00;2.67;;;;;;;2.68;56.35;97025.84;2080877;28;20562;-58
2023/02/27 08:08:29;;;;;;;7.75;2.33;;;;;;;3.45;55.15;97020.00;2084097;28;20566;-58
2023/02/27 08:10:50;;;;;;;6.32;2.20;;;;;;;3.22;53.86;97020.25;2083731;28;20579;-58
2023/02/27 08:11:52;;;;;;;11.20;2.03;;;;;;;3.21;55.56;97029.72;2079168;28;20197;-58
2023/02/27 08:14:12;;;;;;;6.03;1.60;;;;;;;3.27;55.13;97021.88;2085103;28;20558;-58
2023/02/27 08:15:13;;;;;;;3.88;2.00;;;;;;;3.88;54.28;97016.09;2081627;28;20208;-59
2023/02/27 08:16:15;;;;;;;3.95;1.90;;;;;;;4.19;52.79;97015.69;2071070;28;20668;-58
2023/02/27 08:18:36;;;;;;;4.30;1.80;;;;;;;4.67;52.37;97023.66;2099815;27;20551;-58
2023/02/27 08:19:38;;;;;;;12.32;2.58;;;;;;;4.71;51.53;97032.19;2098716;28;20363;-58
2023/02/27 08:20:40;;;;;;;4.95;1.90;;;;;;;3.62;52.39;97029.28;2089542;28;20271;-59
2023/02/27 08:21:41;;;;;;;7.70;2.60;;;;;;;4.15;52.47;97032.13;2083829;28;20197;-59
2023/02/27 08:22:43;;;;;;;4.25;1.90;;;;;;;4.77;51.60;97031.25;2082449;28;20210;-59
2023/02/27 08:23:44;;;;;;;3.22;1.83;;;;;;;5.06;50.56;97034.22;2078927;28;20217;-59
2023/02/27 08:24:46;;;;;;;3.30;1.80;;;;;;;4.98;50.29;97030.91;2080338;28;20850;-58
2023/02/27 08:25:48;;;;;;;5.97;2.20;;;;;;;5.07;50.45;97032.50;2076942;28;20230;-59
2023/02/27 08:26:49;;;;;;;3.45;1.45;;;;;;;5.07;50.53;97029.91;2074900;28;20198;-59
2023/02/27 08:27:51;;;;;;;3.78;1.95;;;;;;;4.98;50.08;97028.31;2072980;28;20206;-59
2023/02/27 08:28:52;;;;;;;6.90;2.10;;;;;;;5.19;50.36;97036.59;2073964;28;20212;-59
2023/02/27 08:29:54;;;;;;;3.42;1.77;;;;;;;5.31;50.10;97041.59;2074923;28;20203;-59
2023/02/27 08:30:56;;;;;;;2.88;1.63;;;;;;;5.05;49.91;97037.72;2073128;28;20217;-59
2023/02/27 08:31:58;;;;;;;4.45;1.70;;;;;;;4.87;50.19;97033.66;2074254;28;20204;-59
2023/02/27 08:33:00;;;;;;;8.38;1.85;;;;;;;5.19;49.50;97034.03;2073908;28;21065;-59
2023/02/27 08:34:02;;;;;;;3.10;1.63;;;;;;;5.23;49.33;97031.38;2075784;28;20253;-58
2023/02/27 08:35:11;;;;;;;7.28;1.65;;;;;;;5.52;49.47;97019.63;2075358;28;20205;-60
2023/02/27 08:36:13;;;;;;;3.58;1.77;;;;;;;5.69;49.02;97027.06;2073410;28;20197;-59
2023/02/27 08:37:14;;;;;;;4.05;1.70;;;;;;;5.51;48.54;97022.22;2072761;28;20210;-59
2023/02/27 08:38:16;;;;;;;3.97;1.85;;;;;;;5.63;48.33;97027.19;2074472;28;20245;-59
2023/02/27 08:39:17;;;;;;;10.13;2.47;;;;;;;5.87;48.59;97019.84;2075304;28;20225;-59
2023/02/27 08:40:19;;;;;;;5.38;2.05;;;;;;;6.21;46.80;97032.16;2075644;28;20256;-59
2023/02/27 08:41:21;;;;;;;5.35;1.85;;;;;;;6.14;47.01;97023.63;2074251;28;20205;-59
2023/02/27 08:42:22;;;;;;;5.03;2.08;;;;;;;6.62;46.60;97035.56;2073723;28;20198;-59
2023/02/27 08:43:27;;;;;;;3.70;1.92;;;;;;;6.03;46.77;97030.75;2073806;28;20332;-59
2023/02/27 08:44:28;;;;;;;9.20;1.95;;;;;;;5.36;48.50;97038.94;2070778;28;20725;-59
2023/02/27 08:45:30;;;;;;;5.50;1.80;;;;;;;6.11;47.72;97035.81;2073495;28;20668;-59
2023/02/27 08:46:31;;;;;;;3.42;2.08;;;;;;;6.64;46.86;97036.38;2070761;28;20194;-59
2023/02/27 08:47:32;;;;;;;5.38;2.00;;;;;;;6.34;47.27;97028.38;2075701;28;20202;-60
2023/02/27 08:48:34;;;;;;;5.78;2.00;;;;;;;5.66;47.72;97029.75;2072242;28;20201;-59
2023/02/27 08:49:35;;;;;;;6.50;2.20;;;;;;;6.38;47.32;97032.59;2071741;28;20198;-59
2023/02/27 08:50:37;;;;;;;5.93;2.30;;;;;;;6.28;46.47;97031.09;2073860;28;20341;-59
2023/02/27 08:51:38;;;;;;;11.20;1.92;;;;;;;6.60;46.14;97026.97;2070848;28;20202;-59
2023/02/27 08:52:40;;;;;;;5.93;1.90;;;;;;;5.78;47.48;97036.41;2073993;28;20198;-59
2023/02/27 08:53:41;;;;;;;3.05;1.60;;;;;;;6.17;47.05;97043.44;2070594;28;20230;-59
2023/02/27 08:54:42;;;;;;;5.75;2.78;;;;;;;6.37;46.38;97019.69;2073880;28;20517;-60
2023/02/27 08:55:48;;;;;;;7.03;2.08;;;;;;;6.92;45.49;97032.28;2073452;28;20501;-59
2023/02/27 08:56:50;;;;;;;3.63;1.50;;;;;;;6.76;45.73;97037.84;2073800;28;20292;-59
2023/02/27 08:57:51;;;;;;;2.90;1.88;;;;;;;6.98;45.51;97037.31;2073893;28;20209;-59
2023/02/27 08:58:54;;;;;;;3.20;1.75;;;;;;;6.41;45.38;97042.06;2073239;28;20222;-60
2023/02/27 08:59:55;;;;;;;7.57;2.92;;;;;;;6.69;45.93;97049.25;2074396;28;20198;-60
2023/02/27 09:00:57;;;;;;;5.60;2.60;;;;;;;6.63;44.58;97039.88;2074458;28;20728;-60
2023/02/27 09:02:00;;;;;;;3.55;1.85;;;;;;;6.58;45.95;97046.91;2076383;28;20259;-59
2023/02/27 09:03:01;;;;;;;7.47;2.78;;;;;;;6.06;46.94;97048.88;2074289;28;20198;-60
2023/02/27 09:04:04;;;;;;;6.30;2.45;;;;;;;5.95;47.23;97046.44;2074229;28;20206;-62
2023/02/27 09:05:06;;;;;;;4.30;2.53;;;;;;;6.94;45.80;97039.13;2073303;28;20197;-62
2023/02/27 09:06:07;;;;;;;7.72;2.40;;;;;;;7.86;43.61;97040.28;2071993;28;20222;-63
2023/02/27 09:07:09;;;;;;;3.67;1.95;;;;;;;7.91;43.06;97041.00;2072412;28;20216;-62
2023/02/27 09:08:10;;;;;;;7.13;2.30;;;;;;;7.19;44.70;97046.34;2075688;28;20204;-62
2023/02/27 09:09:12;;;;;;;7.68;2.15;;;;;;;7.51;43.49;97044.66;2074303;28;20635;-62
2023/02/27 09:10:13;;;;;;;9.30;2.00;;;;;;;7.07;43.57;97038.84;2074942;28;20237;-62
2023/02/27 09:11:16;;;;;;;4.35;2.13;;;;;;;7.55;43.60;97041.09;2073289;28;20196;-62
2023/02/27 09:12:17;;;;;;;5.10;2.08;;;;;;;7.87;42.43;97049.75;2070564;28;20198;-59
2023/02/27 09:13:20;;;;;;;3.72;2.00;;;;;;;7.96;42.56;97057.34;2072458;28;20198;-60
2023/02/27 09:14:22;;;;;;;5.80;2.08;;;;;;;8.36;42.58;97062.31;2074474;28;20198;-60
2023/02/27 09:15:24;;;;;;;7.60;2.60;;;;;;;8.70;41.53;97056.09;2068704;28;20202;-60
2023/02/27 09:16:26;;;;;;;5.03;1.85;;;;;;;8.76;41.75;97050.72;2073713;28;20194;-60
2023/02/27 09:17:28;;;;;;;4.97;2.45;;;;;;;8.60;41.34;97050.34;2073319;28;20201;-60
2023/02/27 09:18:29;;;;;;;6.45;2.13;;;;;;;8.26;41.65;97039.13;2073306;28;20316;-61
2023/02/27 09:19:30;;;;;;;8.38;2.38;;;;;;;7.17;42.37;97050.72;2073680;28;20259;-60
2023/02/27 09:20:34;;;;;;;4.93;2.38;;;;;;;7.89;42.42;97055.78;2074329;28;20916;-60
2023/02/27 09:21:36;;;;;;;6.63;2.65;;;;;;;8.34;41.03;97047.59;2073982;28;20293;-61
2023/02/27 09:22:38;;;;;;;3.85;2.10;;;;;;;8.03;41.76;97050.22;2074848;28;20220;-60
2023/02/27 09:23:40;;;;;;;3.33;1.83;;;;;;;8.13;41.67;97043.84;2074222;28;20193;-60
2023/02/27 09:24:41;;;;;;;3.58;1.75;;;;;;;8.61;41.44;97044.25;2070635;28;20194;-60
2023/02/27 09:25:43;;;;;;;3.78;1.83;;;;;;;9.22;40.03;97054.47;2071764;28;20235;-60
2023/02/27 09:26:44;;;;;;;4.85;2.15;;;;;;;9.05;40.12;97057.59;2073921;28;20201;-60
2023/02/27 09:27:47;;;;;;;4.38;2.00;;;;;;;8.45;40.76;97046.41;2073520;28;20251;-60
2023/02/27 09:28:48;;;;;;;6.47;1.83;;;;;;;8.26;41.49;97038.28;2075413;28;20681;-60
2023/02/27 09:29:55;;;;;;;4.28;1.80;;;;;;;8.37;41.33;97043.16;2070370;28;20206;-60
2023/02/27 09:31:05;;;;;;;3.85;1.80;;;;;;;8.86;40.79;97051.28;2066440;28;20230;-61
2023/02/27 09:32:07;;;;;;;8.15;2.47;;;;;;;9.00;40.26;97051.69;2067837;28;20207;-60
2023/02/27 09:33:08;;;;;;;4.32;1.73;;;;;;;8.82;40.42;97058.34;2064998;28;20222;-60
2023/02/27 09:34:10;;;;;;;4.38;1.90;;;;;;;9.03;39.83;97054.22;2068339;28;20241;-60
2023/02/27 09:35:14;;;;;;;4.25;2.03;;;;;;;8.80;40.58;97063.59;2068357;28;20204;-60
2023/02/27 09:36:16;;;;;;;4.28;1.88;;;;;;;9.01;40.01;97057.78;2070395;28;20209;-60
2023/02/27 09:37:18;;;;;;;2.88;1.60;;;;;;;9.45;39.65;97060.69;2069615;28;20226;-60
2023/02/27 09:38:19;;;;;;;4.05;1.60;;;;;;;8.98;39.66;97053.50;2068803;28;20234;-60
2023/02/27 09:39:21;;;;;;;3.78;1.90;;;;;;;9.15;39.42;97048.63;2068086;28;20748;-60
2023/02/27 09:40:28;;;;;;;8.63;1.95;;;;;;;9.37;39.84;97062.69;2067018;28;20218;-61
2023/02/27 09:41:50;;;;;;;5.43;2.03;;;;;;;9.05;39.98;97067.19;2068796;28;20255;-60
2023/02/27 09:42:56;;;;;;;3.65;1.52;;;;;;;8.93;40.43;97056.25;2067972;28;20206;-60
2023/02/27 09:44:00;;;;;;;4.82;1.83;;;;;;;8.66;40.05;97029.34;2068101;28;20289;-60
2023/02/27 09:45:06;;;;;;;6.70;1.80;;;;;;;9.05;39.99;97060.22;2068678;28;20405;-60
2023/02/27 09:46:13;;;;;;;4.93;2.00;;;;;;;9.69;39.04;97068.56;2068262;28;20723;-60
2023/02/27 09:47:24;;;;;;;3.58;1.77;;;;;;;9.82;38.69;97041.16;2066329;28;20209;-60
2023/02/27 09:48:31;;;;;;;9.13;1.90;;;;;;;9.88;38.33;97060.94;2067760;28;20538;-60
2023/02/27 09:49:51;;;;;;;3.88;1.70;;;;;;;10.15;37.54;97064.34;2066790;28;20269;-60
2023/02/27 09:50:52;;;;;;;9.70;2.17;;;;;;;9.77;38.21;97056.13;2067109;28;20237;-60
2023/02/27 09:51:54;;;;;;;5.10;1.90;;;;;;;10.29;37.87;97063.81;2067364;28;20563;-60
2023/02/27 09:52:56;;;;;;;4.85;2.40;;;;;;;10.80;37.22;97061.09;2066631;28;20385;-60
2023/02/27 09:54:00;;;;;;;2.47;1.73;;;;;;;10.59;37.00;97056.63;2068918;28;20234;-60
2023/02/27 09:55:04;;;;;;;4.72;1.95;;;;;;;10.19;37.58;97062.47;2064909;28;20819;-60
2023/02/27 09:56:13;;;;;;;5.05;2.10;;;;;;;10.34;37.61;97061.91;2066493;28;20273;-60
2023/02/27 09:57:21;;;;;;;8.55;1.50;;;;;;;10.11;37.43;97063.59;2064727;28;20564;-60
2023/02/27 09:58:33;;;;;;;3.38;1.45;;;;;;;9.66;37.70;97066.06;2068391;28;20203;-61
2023/02/27 09:59:44;;;;;;;3.40;1.85;;;;;;;9.96;37.55;97072.81;2069031;28;20209;-61
2023/02/27 10:00:56;;;;;;;5.35;2.85;;;;;;;10.07;36.73;97063.78;2067847;28;20598;-60
2023/02/27 10:02:16;;;;;;;3.88;1.80;;;;;;;9.68;38.31;97062.50;2069149;28;20296;-60
2023/02/27 10:03:20;;;;;;;4.13;2.08;;;;;;;8.61;38.56;97062.47;2065068;28;20205;-60
2023/02/27 10:04:50;;;;;;;4.95;2.10;;;;;;;7.81;39.40;97062.97;2065567;28;20240;-60
2023/02/27 10:06:13;;;;;;;4.97;2.13;;;;;;;8.21;39.41;97067.03;2066934;28;20234;-60
2023/02/27 10:07:35;;;;;;;6.30;2.40;;;;;;;9.10;38.49;97062.69;2066967;28;20198;-59
2023/02/27 10:09:15;;;;;;;6.78;2.10;;;;;;;9.80;37.76;97062.06;2067134;28;20198;-60
2023/02/27 10:10:42;;;;;;;4.88;1.63;;;;;;;8.98;38.28;97066.53;2066772;28;20221;-60
2023/02/27 10:11:53;;;;;;;4.85;2.05;;;;;;;9.41;37.92;97072.97;2068740;28;20209;-60
2023/02/27 10:13:26;;;;;;;4.35;1.83;;;;;;;9.27;38.18;97069.97;2068674;28;20194;-60
2023/02/27 10:14:42;;;;;;;3.95;1.90;;;;;;;10.22;37.15;97076.25;2066543;28;20226;-60
2023/02/27 10:15:48;;;;;;;4.38;1.92;;;;;;;10.19;36.59;97068.53;2066405;28;20225;-60
2023/02/27 10:16:51;;;;;;;3.08;1.60;;;;;;;10.26;36.58;97070.00;2069125;28;20202;-60
2023/02/27 10:17:58;;;;;;;8.45;1.85;;;;;;;10.21;36.81;97073.69;2066552;28;20639;-60
2023/02/27 10:19:09;;;;;;;5.10;1.75;;;;;;;10.66;36.32;97074.69;2073027;28;20201;-60
2023/02/27 10:20:25;;;;;;;2.78;1.58;;;;;;;10.92;35.57;97064.06;2075704;28;20857;-60
2023/02/27 10:21:37;;;;;;;3.42;1.60;;;;;;;11.30;35.47;97073.91;2076316;28;20225;-60
2023/02/27 10:22:43;;;;;;;5.75;2.10;;;;;;;10.88;35.74;97072.97;2075999;28;20204;-59
2023/02/27 10:23:54;;;;;;;8.30;1.67;;;;;;;11.29;36.42;97074.81;2076058;28;20397;-59
2023/02/27 10:25:01;;;;;;;2.60;1.40;;;;;;;11.40;36.74;97083.09;2076096;28;20216;-60
2023/02/27 10:26:04;;;;;;;6.82;2.10;;;;;;;11.59;35.44;97082.31;2078085;28;20248;-60
2023/02/27 10:27:13;;;;;;;4.35;2.05;;;;;;;11.74;34.29;97072.97;2078828;28;20193;-60
2023/02/27 10:28:19;;;;;;;8.18;2.08;;;;;;;11.09;34.90;97073.00;2076066;28;20193;-60
2023/02/27 10:29:35;;;;;;;4.63;1.83;;;;;;;10.36;35.87;97081.00;2077224;28;20193;-60
2023/02/27 10:30:37;;;;;;;4.75;1.88;;;;;;;11.53;35.59;97078.19;2075145;28;20225;-60
2023/02/27 10:31:39;;;;;;;4.13;2.00;;;;;;;11.34;35.49;97075.50;2074291;28;20548;-60
2023/02/27 10:32:42;;;;;;;5.45;1.85;;;;;;;11.56;34.72;97079.81;2074994;28;20202;-60
2023/02/27 10:33:46;;;;;;;6.20;2.22;;;;;;;11.93;34.59;97078.25;2075326;28;20229;-60
2023/02/27 10:35:05;;;;;;;3.83;1.83;;;;;;;11.81;34.89;97078.78;2076525;28;20310;-60
2023/02/27 10:36:10;;;;;;;5.90;2.05;;;;;;;12.24;34.54;97075.19;2075453;28;20709;-60
2023/02/27 10:37:25;;;;;;;6.65;2.13;;;;;;;11.78;35.21;97085.00;2075940;28;20188;-60
2023/02/27 10:38:45;;;;;;;6.85;1.95;;;;;;;11.02;33.91;97080.25;2076735;28;20683;-60
2023/02/27 10:39:51;;;;;;;11.50;2.38;;;;;;;11.45;34.27;97082.88;2076776;28;20220;-60
2023/02/27 10:40:55;;;;;;;7.13;1.77;;;;;;;11.86;34.58;97089.91;2074431;28;20238;-60
2023/02/27 10:42:06;;;;;;;6.95;2.50;;;;;;;11.84;34.10;97078.66;2077172;28;20703;-60
2023/02/27 10:43:07;;;;;;;5.85;2.00;;;;;;;12.03;34.66;97084.81;2072510;28;20817;-60
2023/02/27 10:44:13;;;;;;;4.35;1.80;;;;;;;12.33;34.16;97073.06;2075688;28;20232;-60
2023/02/27 10:45:15;;;;;;;6.28;2.22;;;;;;;11.82;34.20;97081.34;2074720;28;20198;-60
2023/02/27 10:46:30;;;;;;;3.75;1.52;;;;;;;12.21;33.95;97087.56;2073521;28;20288;-60
2023/02/27 10:47:32;;;;;;;6.22;2.30;;;;;;;11.81;34.85;97077.03;2075537;28;20581;-60
2023/02/27 10:48:33;;;;;;;3.75;1.80;;;;;;;11.92;34.40;97087.03;2075531;28;20197;-60
2023/02/27 10:49:37;;;;;;;4.45;2.13;;;;;;;12.73;33.33;97077.34;2075803;28;20194;-60
2023/02/27 10:50:42;;;;;;;4.47;2.20;;;;;;;13.13;32.54;97089.47;2075335;28;20561;-60
2023/02/27 10:51:45;;;;;;;5.43;1.95;;;;;;;12.09;32.75;97078.50;2075901;28;20724;-60
2023/02/27 10:52:52;;;;;;;3.53;1.80;;;;;;;10.96;34.83;97085.72;2072153;28;20252;-60
2023/02/27 10:54:15;;;;;;;9.70;2.40;;;;;;;9.91;36.05;97073.88;2072218;28;20201;-60
2023/02/27 10:55:22;;;;;;;5.35;1.80;;;;;;;10.31;35.40;97082.91;2075280;28;20562;-60
2023/02/27 10:56:26;;;;;;;6.28;2.03;;;;;;;11.24;35.99;97082.84;2072158;28;20205;-61
2023/02/27 10:57:39;;;;;;;3.35;1.77;;;;;;;10.29;36.12;97088.16;2076214;28;20209;-61
2023/02/27 10:58:41;;;;;;;5.05;1.50;;;;;;;10.28;36.07;97078.66;2076790;28;20704;-60
2023/02/27 10:59:51;;;;;;;4.30;1.75;;;;;;;10.80;35.31;97088.06;2074864;28;20756;-60
2023/02/27 11:01:01;;;;;;;6.75;2.50;;;;;;;9.44;36.52;97040.72;2071643;28;20229;-60
2023/02/27 11:02:19;;;;;;;10.68;1.60;;;;;;;9.73;36.92;97070.19;2073786;28;20209;-60
2023/02/27 11:03:29;;;;;;;4.40;1.60;;;;;;;10.86;36.06;97068.69;2075616;28;20207;-61
2023/02/27 11:04:47;;;;;;;2.83;1.50;;;;;;;11.73;35.31;97085.22;2072000;28;20207;-60
2023/02/27 11:05:56;;;;;;;5.82;1.80;;;;;;;11.08;34.89;97072.16;2073078;28;20737;-60
2023/02/27 11:07:00;;;;;;;3.58;1.52;;;;;;;11.63;34.62;97069.94;2074970;28;20672;-61
2023/02/27 11:08:31;;;;;;;5.00;1.88;;;;;;;12.10;33.89;97082.81;2074133;28;20204;-60
2023/02/27 11:09:34;;;;;;;2.30;1.30;;;;;;;12.24;34.17;97066.50;2074328;28;20205;-60
2023/02/27 11:10:35;;;;;;;2.88;1.27;;;;;;;13.02;33.57;97080.34;2073298;28;20709;-64
2023/02/27 11:11:37;;;;;;;3.72;1.30;;;;;;;13.28;33.33;97061.66;2075210;28;20202;-64
2023/02/27 11:12:40;;;;;;;2.40;1.40;;;;;;;12.98;32.87;97070.94;2075039;28;20205;-64
2023/02/27 11:13:43;;;;;;;2.50;1.30;;;;;;;12.77;33.36;97069.34;2074144;28;20620;-64
2023/02/27 11:14:49;;;;;;;4.50;1.60;;;;;;;12.95;32.67;97068.47;2074483;28;20197;-64
2023/02/27 11:16:12;;;;;;;3.72;1.65;;;;;;;12.38;33.34;97078.97;2078288;28;20756;-64
2023/02/27 11:17:22;;;;;;;4.18;1.67;;;;;;;12.46;33.63;97063.75;2076801;28;20201;-64
2023/02/27 11:18:28;;;;;;;6.28;2.10;;;;;;;11.81;33.79;97061.34;2075522;28;20232;-64
2023/02/27 11:19:37;;;;;;;2.55;1.48;;;;;;;11.13;34.21;97071.13;2076565;28;20312;-64
2023/02/27 11:20:42;;;;;;;2.63;1.38;;;;;;;12.15;34.10;97070.38;2074075;28;20255;-64
2023/02/27 11:22:02;;;;;;;1.90;1.17;;;;;;;12.31;34.04;97067.06;2075336;28;20700;-64
2023/02/27 11:23:12;;;;;;;3.58;1.50;;;;;;;12.62;33.54;97069.13;2074609;28;20208;-64
2023/02/27 11:24:19;;;;;;;4.10;1.38;;;;;;;13.12;33.12;97046.69;2076277;28;20720;-64
2023/02/27 11:25:23;;;;;;;2.92;1.55;;;;;;;12.76;32.59;97054.53;2074607;28;20201;-64
2023/02/27 11:26:29;;;;;;;3.63;1.40;;;;;;;13.46;32.33;97054.69;2076431;28;20200;-64
2023/02/27 11:27:31;;;;;;;4.18;1.60;;;;;;;13.46;31.84;97073.91;2076167;28;20324;-64
2023/02/27 11:28:32;;;;;;;4.28;1.63;;;;;;;13.08;32.03;97071.34;2076193;28;20189;-64
2023/02/27 11:29:34;;;;;;;4.93;1.35;;;;;;;12.79;31.65;97062.25;2076140;28;20205;-64
2023/02/27 11:30:35;;;;;;;3.85;1.40;;;;;;;13.37;31.68;97056.03;2073864;28;20232;-64
2023/02/27 11:31:38;;;;;;;2.80;1.58;;;;;;;14.10;31.22;97061.06;2075768;28;20673;-64
2023/02/27 11:32:47;;;;;;;3.63;1.42;;;;;;;13.04;31.44;97056.72;2077079;28;20601;-64
2023/02/27 11:33:57;;;;;;;2.80;1.45;;;;;;;13.49;31.40;97054.56;2075336;28;20224;-64
2023/02/27 11:34:59;;;;;;;5.38;1.77;;;;;;;14.13;31.12;97057.41;2076645;28;20201;-64
2023/02/27 11:36:01;;;;;;;3.40;1.30;;;;;;;13.34;32.00;97054.34;2075566;28;20760;-64
2023/02/27 11:37:24;;;;;;;4.63;1.73;;;;;;;13.47;31.43;97057.25;2076406;28;20210;-64
2023/02/27 11:38:28;;;;;;;5.47;1.60;;;;;;;11.64;32.60;97069.03;2075073;28;20216;-64
2023/02/27 11:39:34;;;;;;;5.03;1.70;;;;;;;11.31;32.51;97059.06;2076401;28;20237;-64
2023/02/27 11:40:40;;;;;;;3.78;1.30;;;;;;;9.91;33.41;97051.25;2074000;28;20225;-64
2023/02/27 11:41:43;;;;;;;10.65;1.50;;;;;;;11.28;32.93;97060.03;2072773;28;20198;-64
2023/02/27 11:42:51;;;;;;;5.43;1.50;;;;;;;11.01;33.85;97056.78;2073567;28;20697;-64
2023/02/27 11:43:54;;;;;;;3.03;1.25;;;;;;;11.25;33.92;97054.97;2075103;28;20197;-64
2023/02/27 11:44:59;;;;;;;2.75;1.58;;;;;;;9.60;33.63;97062.75;2078343;28;20813;-64
2023/02/27 11:46:11;;;;;;;5.90;1.75;;;;;;;10.27;35.15;97063.03;2079378;28;20766;-64
2023/02/27 11:47:36;;;;;;;4.18;1.60;;;;;;;10.47;34.77;97064.94;2078145;28;20653;-63
2023/02/27 11:48:45;;;;;;;4.45;1.50;;;;;;;8.60;36.04;97055.56;2075428;28;20244;-63
2023/02/27 11:50:25;;;;;;;6.22;1.50;;;;;;;8.37;36.82;97059.66;2075363;28;20670;-64
2023/02/27 11:51:36;;;;;;;3.85;1.55;;;;;;;7.95;36.92;97060.81;2076452;28;20574;-64
2023/02/27 11:52:37;;;;;;;7.88;1.50;;;;;;;7.20;37.68;97061.06;2075778;28;20203;-64
2023/02/27 11:53:57;;;;;;;5.53;1.10;;;;;;;7.43;37.93;97063.06;2075026;28;20196;-64
2023/02/27 11:55:02;;;;;;;4.03;1.50;;;;;;;9.37;36.24;97057.47;2072869;28;20657;-64
2023/02/27 11:56:11;;;;;;;5.30;1.60;;;;;;;10.38;34.54;97065.28;2072533;28;20245;-64
2023/02/27 11:57:26;;;;;;;3.55;1.50;;;;;;;10.81;33.36;97060.19;2075591;28;20638;-64
2023/02/27 11:58:39;;;;;;;3.30;1.30;;;;;;;10.19;34.29;97063.31;2076512;28;20577;-64
2023/02/27 11:59:40;;;;;;;3.97;1.30;;;;;;;8.72;36.39;97062.97;2073965;28;20697;-64
2023/02/27 12:01:04;;;;;;;2.67;1.40;;;;;;;8.94;35.47;97064.94;2072819;28;20465;-64
2023/02/27 12:02:28;;;;;;;2.20;1.23;;;;;;;9.10;36.47;97063.53;2075787;28;20189;-64
2023/02/27 12:03:46;;;;;;;2.47;1.50;;;;;;;8.56;35.76;97048.72;2079742;28;20286;-64
2023/02/27 12:05:20;;;;;;;2.47;1.02;;;;;;;7.55;37.94;97054.09;2078951;28;20208;-64
2023/02/27 12:06:28;;;;;;;3.28;1.50;;;;;;;7.93;36.99;97060.00;2074391;28;20217;-64
2023/02/27 12:07:53;;;;;;;5.07;1.63;;;;;;;8.00;37.52;97061.56;2076353;28;20537;-64
2023/02/27 12:09:01;;;;;;;2.75;1.35;;;;;;;8.01;37.12;97055.47;2075788;28;20208;-64
2023/02/27 12:10:17;;;;;;;3.72;1.85;;;;;;;6.62;37.46;97056.31;2077235;28;20201;-64
2023/02/27 12:11:49;;;;;;;1.95;1.30;;;;;;;6.00;38.98;97056.75;2070229;28;20213;-64
2023/02/27 12:12:50;;;;;;;2.53;1.30;;;;;;;4.60;40.73;97057.34;2066258;28;20213;-64
2023/02/27 12:14:02;;;;;;;4.85;1.45;;;;;;;5.58;40.64;97059.25;2070090;28;20238;-63
2023/02/27 12:15:29;;;;;;;4.00;1.33;;;;;;;7.46;38.93;97060.38;2069855;28;20206;-64
2023/02/27 12:16:56;;;;;;;3.15;1.27;;;;;;;8.10;37.69;97062.16;2061601;28;20225;-64
2023/02/27 12:18:09;;;;;;;4.50;1.80;;;;;;;9.47;37.77;97064.94;2066586;28;20237;-64
2023/02/27 12:19:21;;;;;;;3.95;1.92;;;;;;;10.21;37.14;97058.03;2071029;28;20276;-64
2023/02/27 12:20:28;;;;;;;4.25;1.80;;;;;;;10.36;37.94;97056.66;2070612;28;20269;-64
2023/02/27 12:21:35;;;;;;;5.32;1.77;;;;;;;11.31;37.03;97049.44;2075784;28;20672;-64
2023/02/27 12:22:41;;;;;;;3.08;1.75;;;;;;;11.96;36.18;97048.53;2075522;28;20232;-64
2023/02/27 12:24:17;;;;;;;5.65;2.13;;;;;;;12.08;36.01;97043.59;2065755;28;20568;-64
2023/02/27 12:25:26;;;;;;;6.20;1.35;;;;;;;11.84;36.20;97031.56;2038755;28;20220;-63
2023/02/27 12:26:32;;;;;;;5.00;1.50;;;;;;;12.49;36.08;97036.56;2063858;28;20217;-64
2023/02/27 12:27:50;;;;;;;5.72;1.80;;;;;;;11.52;36.30;97036.41;2064383;28;20190;-64
2023/02/27 12:29:03;;;;;;;4.80;1.38;;;;;;;11.77;36.36;97047.53;2067197;28;20203;-64
2023/02/27 12:30:18;;;;;;;8.27;2.00;;;;;;;11.78;36.14;97027.44;2066845;28;20210;-65
2023/02/27 12:31:42;;;;;;;6.15;1.80;;;;;;;10.83;37.29;97033.09;2067221;28;20255;-64
2023/02/27 12:32:52;;;;;;;4.03;1.30;;;;;;;11.82;35.55;97028.16;2067429;28;20202;-64
2023/02/27 12:34:06;;;;;;;9.40;1.95;;;;;;;10.94;35.94;97020.47;2067762;28;20243;-64
2023/02/27 12:35:30;;;;;;;2.65;1.50;;;;;;;11.00;35.21;97028.97;2067107;28;20199;-64
2023/02/27 12:36:31;;;;;;;7.05;1.40;;;;;;;9.79;36.85;97020.41;2066218;28;20234;-64
2023/02/27 12:37:36;;;;;;;3.15;1.33;;;;;;;9.74;37.11;97032.75;2067624;28;20663;-64
2023/02/27 12:38:38;;;;;;;3.20;1.85;;;;;;;8.96;37.41;97037.06;2066501;28;20198;-64
2023/02/27 12:39:43;;;;;;;2.70;1.33;;;;;;;9.73;37.21;97031.06;2066286;28;20198;-64
2023/02/27 12:41:26;;;;;;;3.63;1.60;;;;;;;10.90;35.73;97029.31;2065152;28;20232;-64
2023/02/27 12:42:34;;;;;;;7.72;1.55;;;;;;;10.80;35.71;97032.38;2066816;28;20680;-64
2023/02/27 12:43:54;;;;;;;5.38;1.48;;;;;;;11.14;34.96;97020.56;2067690;28;20269;-64
2023/02/27 12:45:25;;;;;;;4.15;1.60;;;;;;;11.58;34.36;97034.38;2065717;28;20301;-64
2023/02/27 12:46:48;;;;;;;7.65;1.58;;;;;;;11.40;34.27;97027.31;2077135;28;20225;-64
2023/02/27 12:47:49;;;;;;;2.65;1.20;;;;;;;11.11;35.39;97035.44;2075219;28;20199;-65
2023/02/27 12:49:13;;;;;;;4.57;1.80;;;;;;;11.01;35.51;97026.28;2074836;28;20245;-64
2023/02/27 12:50:20;;;;;;;30.50;11.77;;;;;;;10.27;35.99;97026.47;2075721;28;20687;-64
2023/02/27 12:51:43;;;;;;;24.40;12.68;;;;;;;10.10;36.91;97037.56;2074210;28;20261;-64
2023/02/27 12:53:22;;;;;;;4.45;2.20;;;;;;;8.77;38.33;97034.19;2075147;28;20624;-64
2023/02/27 12:54:35;;;;;;;5.38;1.60;;;;;;;8.95;39.24;97037.97;2075047;28;20206;-64
2023/02/27 12:55:42;;;;;;;6.03;1.40;;;;;;;8.41;39.41;97031.78;2076209;28;20225;-64
2023/02/27 12:56:53;;;;;;;6.93;1.60;;;;;;;8.28;39.29;97047.75;2074594;28;20203;-64
2023/02/27 12:58:28;;;;;;;5.70;1.80;;;;;;;8.32;38.54;97041.56;2075182;28;20276;-64
2023/02/27 13:00:06;;;;;;;3.30;1.48;;;;;;;7.93;39.95;97036.59;2076517;28;20670;-64
2023/02/27 13:01:25;;;;;;;3.97;1.42;;;;;;;7.30;40.37;97026.16;2075259;28;20228;-64
2023/02/27 13:02:36;;;;;;;4.93;1.67;;;;;;;6.81;41.31;97035.97;2075740;28;20190;-64
2023/02/27 13:03:55;;;;;;;6.72;1.75;;;;;;;6.27;41.56;97034.63;2075354;28;20550;-64
2023/02/27 13:05:33;;;;;;;5.90;2.08;;;;;;;5.96;42.85;97042.97;2076266;28;20240;-64
2023/02/27 13:06:46;;;;;;;5.90;1.60;;;;;;;6.02;43.65;97040.28;2076301;28;20240;-64
2023/02/27 13:08:05;;;;;;;7.00;2.15;;;;;;;6.15;43.56;97027.09;2076565;28;20209;-64
2023/02/27 13:09:25;;;;;;;3.42;1.52;;;;;;;6.22;42.11;97041.59;2076102;28;20200;-64
2023/02/27 13:10:48;;;;;;;5.55;1.75;;;;;;;6.82;41.13;97042.06;2075440;28;20207;-63
2023/02/27 13:11:59;;;;;;;4.43;1.75;;;;;;;7.37;40.57;97037.22;2075129;28;20551;-63
2023/02/27 13:13:24;;;;;;;11.80;1.58;;;;;;;7.60;39.95;97033.19;2079196;28;20197;-64
2023/02/27 13:14:35;;;;;;;6.20;2.00;;;;;;;6.51;40.72;97038.41;2073131;28;20215;-64
2023/02/27 13:15:47;;;;;;;6.85;2.55;;;;;;;6.69;41.42;97024.16;2074979;28;20235;-63
2023/02/27 13:17:00;;;;;;;6.32;2.20;;;;;;;6.21;41.58;97032.16;2075797;28;20209;-63
2023/02/27 13:18:31;;;;;;;4.40;2.42;;;;;;;6.18;42.29;97039.97;2077628;28;21225;-63
2023/02/27 13:20:06;;;;;;;5.03;1.70;;;;;;;6.34;42.25;97040.50;2075830;28;20206;-63
2023/02/27 13:21:17;;;;;;;5.85;2.22;;;;;;;6.70;41.59;97031.06;2074537;28;20236;-64
2023/02/27 13:22:31;;;;;;;3.10;1.50;;;;;;;6.39;42.56;97023.09;2077140;28;20661;-64
2023/02/27 13:23:51;;;;;;;5.47;1.90;;;;;;;5.99;42.36;97026.53;2075650;28;20202;-64
2023/02/27 13:24:56;;;;;;;8.35;1.98;;;;;;;5.27;43.55;97028.72;2076604;28;20672;-64
2023/02/27 13:26:00;;;;;;;6.03;2.45;;;;;;;4.68;45.21;97027.91;2076056;28;20576;-63
2023/02/27 13:27:18;;;;;;;6.38;2.00;;;;;;;4.89;46.03;97031.91;2077265;28;20195;-63
2023/02/27 13:28:26;;;;;;;6.90;2.00;;;;;;;5.34;45.42;97031.16;2075903;28;20205;-63
2023/02/27 13:30:09;;;;;;;6.07;1.55;;;;;;;5.60;44.89;97032.44;2078280;28;20205;-64
2023/02/27 13:31:45;;;;;;;2.38;1.35;;;;;;;5.38;45.71;97022.47;2074559;28;20298;-63
2023/02/27 13:33:17;;;;;;;3.92;1.75;;;;;;;4.84;46.35;97027.72;2074777;28;20210;-63
2023/02/27 13:34:36;;;;;;;6.40;1.40;;;;;;;4.97;46.43;97025.78;2074745;28;20551;-63
2023/02/27 13:35:50;;;;;;;2.78;1.30;;;;;;;4.68;47.11;97022.75;2075466;28;20226;-64
2023/02/27 13:37:00;;;;;;;3.00;1.60;;;;;;;4.43;46.66;97017.06;2075347;28;20255;-63
2023/02/27 13:38:22;;;;;;;5.05;1.77;;;;;;;4.51;47.26;97029.91;2075419;28;20633;-63
2023/02/27 13:39:51;;;;;;;5.78;2.30;;;;;;;5.39;46.27;97031.94;2076766;28;20260;-63